Wind From: 11-12-2017 07:30 Until: 12-12-2017 06:00 warning for: Wind Level: Orange info button

Power and phone distribution networks may be disrupted for relatively long periods., Roofs and chimneys can be damaged. , Tree branches may break. , Vehicles can be deported. , Traffic may be disrupted, particularly on secondary roads in forest areas. Limit your trips. , Limit your speed in highway driving, especially if you drive a vehicle or hitch sensitive to wind. , Do not go for walks in forests or along the coast., In town, be vigilant against possible falling objects., Do not work on roofs and do not touch any electrical line fallen on the ground., Store or secure sensitive objects to wind or likely to be damaged., Always install power generators outside buildings. 


Meteo18 Weather Cam more information Meteo18 Weather Cam


Thunder radar more information blitzortung!


Rain radar more information rain snow radar


Visit our other weather sites:

Template documentation
and downloads

And another site



Weather Underground History page Text

Daily Summary for February 26, 2017 Units:  Both    English   Metric
« Previous Day
Next Day »
Daily Weekly Monthly Yearly Custom
  High: Low: Average:
Temperature: 51.6 °F /  10.9 °C 33.4 °F /  0.8 °C 43.7 °F /  6.5 °C
Dew Point: 47.7 °F /  8.7 °C 30.7 °F /  -0.7 °C 39.6 °F /  4.2 °C
Humidity: 92 % 72 % 85 %
Wind Speed: 15 mph /  24.1 km/h - 3.8 mph /  6.1 km/h
Wind Gust: 18 mph /  29.0 km/h - -
Wind:- - SW
Pressure: 30.1 in /  1019.5 hPa 30 in /  1014.8 hPa -
Precipitation: 0 in /  0.0 mm    
Historical Graphs
 
 
Tabular Data for February 26, 2017
Time Temperature Dew Point Pressure Wind Wind Speed Wind Gust Humidity Rainfall Rate (Hourly)
00:02 38.3 °F /  3.5 °C 31.5 °F /  -0.3 °C 30.1 in /  1019.5 hPa Calm     76 % 0 in /  0.0 mm
00:12 38.1 °F /  3.4 °C 31.6 °F /  -0.2 °C 30.1 in /  1019.5 hPa Calm     77 % 0 in /  0.0 mm
00:17 38.5 °F /  3.6 °C 32.2 °F /  0.1 °C 30.1 in /  1019.5 hPa Calm     78 % 0 in /  0.0 mm
00:22 38.5 °F /  3.6 °C 32.2 °F /  0.1 °C 30.1 in /  1019.5 hPa Calm   1 mph /  1.6 km/h 78 % 0 in /  0.0 mm
00:27 38.1 °F /  3.4 °C 31.8 °F /  -0.1 °C 30.1 in /  1019.2 hPa Calm   1 mph /  1.6 km/h 78 % 0 in /  0.0 mm
00:32 37.9 °F /  3.3 °C 32 °F /  0.0 °C 30.1 in /  1019.2 hPa Calm   3 mph /  4.8 km/h 79 % 0 in /  0.0 mm
00:42 36.9 °F /  2.7 °C 31.3 °F /  -0.4 °C 30.1 in /  1019.2 hPa Calm   3 mph /  4.8 km/h 80 % 0 in /  0.0 mm
00:47 36.7 °F /  2.6 °C 31.5 °F /  -0.3 °C 30.1 in /  1019.2 hPa Calm   3 mph /  4.8 km/h 81 % 0 in /  0.0 mm
00:52 36.3 °F /  2.4 °C 31.3 °F /  -0.4 °C 30.1 in /  1019.2 hPa Calm   1 mph /  1.6 km/h 82 % 0 in /  0.0 mm
00:57 36.1 °F /  2.3 °C 31.5 °F /  -0.3 °C 30.1 in /  1018.8 hPa Calm   2 mph /  3.2 km/h 83 % 0 in /  0.0 mm
01:02 36.1 °F /  2.3 °C 31.8 °F /  -0.1 °C 30.1 in /  1018.8 hPa Calm   2 mph /  3.2 km/h 84 % 0 in /  0.0 mm
01:12 38.5 °F /  3.6 °C 33.1 °F /  0.6 °C 30.1 in /  1019.2 hPa SW 2 mph /  3.2 km/h 3 mph /  4.8 km/h 81 % 0 in /  0.0 mm
01:17 39 °F /  3.9 °C 32.7 °F /  0.4 °C 30.1 in /  1018.8 hPa SSW 1 mph /  1.6 km/h 3 mph /  4.8 km/h 78 % 0 in /  0.0 mm
01:22 38.7 °F /  3.7 °C 32.7 °F /  0.4 °C 30.1 in /  1018.8 hPa SSW 2 mph /  3.2 km/h 3 mph /  4.8 km/h 79 % 0 in /  0.0 mm
01:27 38.5 °F /  3.6 °C 32.5 °F /  0.3 °C 30.1 in /  1018.8 hPa SSW 2 mph /  3.2 km/h 3 mph /  4.8 km/h 79 % 0 in /  0.0 mm
01:32 38.7 °F /  3.7 °C 32.7 °F /  0.4 °C 30.1 in /  1018.8 hPa SSW 1 mph /  1.6 km/h 3 mph /  4.8 km/h 79 % 0 in /  0.0 mm
01:37 38.8 °F /  3.8 °C 32.9 °F /  0.5 °C 30.1 in /  1018.8 hPa SW 1 mph /  1.6 km/h 3 mph /  4.8 km/h 79 % 0 in /  0.0 mm
01:42 39 °F /  3.9 °C 32.7 °F /  0.4 °C 30.1 in /  1018.8 hPa Calm   3 mph /  4.8 km/h 78 % 0 in /  0.0 mm
01:47 38.8 °F /  3.8 °C 32.5 °F /  0.3 °C 30.1 in /  1018.8 hPa Calm   3 mph /  4.8 km/h 78 % 0 in /  0.0 mm
01:52 38.7 °F /  3.7 °C 32.4 °F /  0.2 °C 30.1 in /  1018.8 hPa Calm   3 mph /  4.8 km/h 78 % 0 in /  0.0 mm
01:57 38.5 °F /  3.6 °C 32.5 °F /  0.3 °C 30.1 in /  1018.8 hPa Calm   1 mph /  1.6 km/h 79 % 0 in /  0.0 mm
02:02 38.5 °F /  3.6 °C 32.5 °F /  0.3 °C 30.1 in /  1018.8 hPa Calm   1 mph /  1.6 km/h 79 % 0 in /  0.0 mm
02:12 37.6 °F /  3.1 °C 32 °F /  0.0 °C 30.1 in /  1018.8 hPa Calm   1 mph /  1.6 km/h 80 % 0 in /  0.0 mm
02:17 37.6 °F /  3.1 °C 32.4 °F /  0.2 °C 30.1 in /  1018.8 hPa Calm     81 % 0 in /  0.0 mm
02:22 37.2 °F /  2.9 °C 31.6 °F /  -0.2 °C 30.1 in /  1018.8 hPa Calm     80 % 0 in /  0.0 mm
02:32 37 °F /  2.8 °C 32 °F /  0.0 °C 30.1 in /  1018.8 hPa Calm     82 % 0 in /  0.0 mm
02:37 37 °F /  2.8 °C 32 °F /  0.0 °C 30.1 in /  1018.8 hPa Calm     82 % 0 in /  0.0 mm
02:42 36.9 °F /  2.7 °C 31.8 °F /  -0.1 °C 30.1 in /  1018.8 hPa Calm     82 % 0 in /  0.0 mm
02:47 36.5 °F /  2.5 °C 31.5 °F /  -0.3 °C 30.1 in /  1018.8 hPa Calm     82 % 0 in /  0.0 mm
02:57 35.8 °F /  2.1 °C 31.5 °F /  -0.3 °C 30.1 in /  1018.8 hPa Calm     84 % 0 in /  0.0 mm
03:02 35.4 °F /  1.9 °C 31.1 °F /  -0.5 °C 30.1 in /  1018.8 hPa Calm     84 % 0 in /  0.0 mm
03:12 35.1 °F /  1.7 °C 30.9 °F /  -0.6 °C 30.1 in /  1018.8 hPa Calm     85 % 0 in /  0.0 mm
03:17 34.9 °F /  1.6 °C 31.1 °F /  -0.5 °C 30.1 in /  1018.8 hPa Calm     86 % 0 in /  0.0 mm
03:22 34.9 °F /  1.6 °C 31.1 °F /  -0.5 °C 30.1 in /  1018.8 hPa Calm     86 % 0 in /  0.0 mm
03:32 35.2 °F /  1.8 °C 31.5 °F /  -0.3 °C 30.1 in /  1018.8 hPa Calm     86 % 0 in /  0.0 mm
03:37 35.4 °F /  1.9 °C 31.6 °F /  -0.2 °C 30.1 in /  1018.8 hPa Calm     86 % 0 in /  0.0 mm
03:42 35.4 °F /  1.9 °C 31.6 °F /  -0.2 °C 30.1 in /  1018.8 hPa Calm     86 % 0 in /  0.0 mm
03:47 35.4 °F /  1.9 °C 31.3 °F /  -0.4 °C 30.1 in /  1018.8 hPa Calm     85 % 0 in /  0.0 mm
03:52 35.2 °F /  1.8 °C 31.1 °F /  -0.5 °C 30.1 in /  1018.8 hPa Calm     85 % 0 in /  0.0 mm
03:57 35.1 °F /  1.7 °C 31.3 °F /  -0.4 °C 30.1 in /  1018.8 hPa Calm     86 % 0 in /  0.0 mm
04:02 35.1 °F /  1.7 °C 31.3 °F /  -0.4 °C 30.1 in /  1018.8 hPa Calm     86 % 0 in /  0.0 mm
04:12 35.1 °F /  1.7 °C 31.6 °F /  -0.2 °C 30.1 in /  1018.5 hPa Calm   1 mph /  1.6 km/h 87 % 0 in /  0.0 mm
04:17 35.1 °F /  1.7 °C 31.3 °F /  -0.4 °C 30.1 in /  1018.5 hPa Calm   1 mph /  1.6 km/h 86 % 0 in /  0.0 mm
04:22 34.7 °F /  1.5 °C 30.9 °F /  -0.6 °C 30.1 in /  1018.5 hPa Calm   1 mph /  1.6 km/h 86 % 0 in /  0.0 mm
04:27 34.3 °F /  1.3 °C 30.9 °F /  -0.6 °C 30.1 in /  1018.5 hPa Calm   1 mph /  1.6 km/h 87 % 0 in /  0.0 mm
04:32 34.3 °F /  1.3 °C 31.1 °F /  -0.5 °C 30.1 in /  1018.5 hPa Calm   1 mph /  1.6 km/h 88 % 0 in /  0.0 mm
04:37 34.3 °F /  1.3 °C 31.1 °F /  -0.5 °C 30.1 in /  1018.5 hPa Calm     88 % 0 in /  0.0 mm
04:42 34.3 °F /  1.3 °C 31.1 °F /  -0.5 °C 30.1 in /  1018.5 hPa Calm     88 % 0 in /  0.0 mm
04:47 34.3 °F /  1.3 °C 31.1 °F /  -0.5 °C 30.1 in /  1018.5 hPa Calm     88 % 0 in /  0.0 mm
04:52 34.2 °F /  1.2 °C 30.9 °F /  -0.6 °C 30.1 in /  1018.5 hPa Calm     88 % 0 in /  0.0 mm
04:57 34 °F /  1.1 °C 30.7 °F /  -0.7 °C 30.1 in /  1018.5 hPa Calm     88 % 0 in /  0.0 mm
05:02 34 °F /  1.1 °C 30.7 °F /  -0.7 °C 30.1 in /  1018.5 hPa Calm     88 % 0 in /  0.0 mm
05:07 34 °F /  1.1 °C 31.1 °F /  -0.5 °C 30.1 in /  1018.5 hPa Calm     89 % 0 in /  0.0 mm
05:12 34 °F /  1.1 °C 31.1 °F /  -0.5 °C 30.1 in /  1018.5 hPa Calm     89 % 0 in /  0.0 mm
05:22 34.2 °F /  1.2 °C 31.3 °F /  -0.4 °C 30.1 in /  1018.5 hPa Calm     89 % 0 in /  0.0 mm
05:32 34.3 °F /  1.3 °C 31.5 °F /  -0.3 °C 30.1 in /  1018.5 hPa Calm     89 % 0 in /  0.0 mm
05:37 34.3 °F /  1.3 °C 31.1 °F /  -0.5 °C 30.1 in /  1018.5 hPa Calm     88 % 0 in /  0.0 mm
05:42 34.3 °F /  1.3 °C 31.1 °F /  -0.5 °C 30.1 in /  1018.5 hPa Calm     88 % 0 in /  0.0 mm
05:47 34.3 °F /  1.3 °C 31.1 °F /  -0.5 °C 30.1 in /  1018.5 hPa Calm     88 % 0 in /  0.0 mm
05:52 34.3 °F /  1.3 °C 31.1 °F /  -0.5 °C 30.1 in /  1018.5 hPa Calm     88 % 0 in /  0.0 mm
05:57 34.2 °F /  1.2 °C 30.9 °F /  -0.6 °C 30.1 in /  1018.5 hPa Calm     88 % 0 in /  0.0 mm
06:02 34.2 °F /  1.2 °C 30.9 °F /  -0.6 °C 30.1 in /  1018.5 hPa Calm     88 % 0 in /  0.0 mm
06:07 34 °F /  1.1 °C 31.1 °F /  -0.5 °C 30.1 in /  1018.5 hPa Calm     89 % 0 in /  0.0 mm
06:12 34 °F /  1.1 °C 31.1 °F /  -0.5 °C 30.1 in /  1018.5 hPa Calm     89 % 0 in /  0.0 mm
06:17 34.2 °F /  1.2 °C 31.3 °F /  -0.4 °C 30.1 in /  1018.5 hPa Calm     89 % 0 in /  0.0 mm
06:22 34.3 °F /  1.3 °C 31.5 °F /  -0.3 °C 30.1 in /  1018.5 hPa Calm     89 % 0 in /  0.0 mm
06:27 34.5 °F /  1.4 °C 31.3 °F /  -0.4 °C 30.1 in /  1018.5 hPa Calm     88 % 0 in /  0.0 mm
06:32 34.5 °F /  1.4 °C 31.3 °F /  -0.4 °C 30.1 in /  1018.5 hPa Calm     88 % 0 in /  0.0 mm
06:42 34.3 °F /  1.3 °C 31.1 °F /  -0.5 °C 30.1 in /  1018.5 hPa Calm     88 % 0 in /  0.0 mm
06:47 34.3 °F /  1.3 °C 31.5 °F /  -0.3 °C 30.1 in /  1018.5 hPa Calm     89 % 0 in /  0.0 mm
06:52 34.3 °F /  1.3 °C 31.1 °F /  -0.5 °C 30.1 in /  1018.8 hPa NNE 1 mph /  1.6 km/h   88 % 0 in /  0.0 mm
06:57 34.2 °F /  1.2 °C 31.3 °F /  -0.4 °C 30.1 in /  1018.8 hPa Calm     89 % 0 in /  0.0 mm
07:02 34.2 °F /  1.2 °C 31.3 °F /  -0.4 °C 30.1 in /  1018.8 hPa Calm   2 mph /  3.2 km/h 89 % 0 in /  0.0 mm
07:12 34.2 °F /  1.2 °C 31.3 °F /  -0.4 °C 30.1 in /  1018.8 hPa Calm   2 mph /  3.2 km/h 89 % 0 in /  0.0 mm
07:17 34.2 °F /  1.2 °C 31.3 °F /  -0.4 °C 30.1 in /  1018.8 hPa Calm     89 % 0 in /  0.0 mm
07:22 34.2 °F /  1.2 °C 31.3 °F /  -0.4 °C 30.1 in /  1018.8 hPa Calm     89 % 0 in /  0.0 mm
07:32 34 °F /  1.1 °C 31.1 °F /  -0.5 °C 30.1 in /  1018.8 hPa Calm   1 mph /  1.6 km/h 89 % 0 in /  0.0 mm
07:37 33.8 °F /  1.0 °C 30.9 °F /  -0.6 °C 30.1 in /  1018.5 hPa Calm     89 % 0 in /  0.0 mm
07:42 33.6 °F /  0.9 °C 30.9 °F /  -0.6 °C 30.1 in /  1018.5 hPa Calm     90 % 0 in /  0.0 mm
07:52 33.4 °F /  0.8 °C 30.7 °F /  -0.7 °C 30.1 in /  1018.8 hPa Calm   1 mph /  1.6 km/h 90 % 0 in /  0.0 mm
08:02 33.6 °F /  0.9 °C 31.3 °F /  -0.4 °C 30.1 in /  1018.8 hPa Calm     91 % 0 in /  0.0 mm
08:07 34 °F /  1.1 °C 31.6 °F /  -0.2 °C 30.1 in /  1019.2 hPa Calm     91 % 0 in /  0.0 mm
08:12 34.3 °F /  1.3 °C 31.6 °F /  -0.2 °C 30.1 in /  1019.2 hPa Calm     90 % 0 in /  0.0 mm
08:22 34.9 °F /  1.6 °C 32 °F /  0.0 °C 30.1 in /  1018.8 hPa Calm     89 % 0 in /  0.0 mm
08:32 34.9 °F /  1.6 °C 32 °F /  0.0 °C 30.1 in /  1019.2 hPa Calm     89 % 0 in /  0.0 mm
08:37 34.9 °F /  1.6 °C 32 °F /  0.0 °C 30.1 in /  1019.2 hPa Calm   2 mph /  3.2 km/h 89 % 0 in /  0.0 mm
08:42 34.9 °F /  1.6 °C 32.2 °F /  0.1 °C 30.1 in /  1019.5 hPa Calm   2 mph /  3.2 km/h 90 % 0 in /  0.0 mm
08:52 35.2 °F /  1.8 °C 32.4 °F /  0.2 °C 30.1 in /  1019.5 hPa Calm   2 mph /  3.2 km/h 89 % 0 in /  0.0 mm
09:02 36 °F /  2.2 °C 32.7 °F /  0.4 °C 30.1 in /  1019.2 hPa Calm   1 mph /  1.6 km/h 88 % 0 in /  0.0 mm
09:07 36.3 °F /  2.4 °C 33.1 °F /  0.6 °C 30.1 in /  1018.8 hPa Calm     88 % 0 in /  0.0 mm
09:12 36.7 °F /  2.6 °C 33.3 °F /  0.7 °C 30.1 in /  1019.2 hPa Calm     87 % 0 in /  0.0 mm
09:17 37 °F /  2.8 °C 33.6 °F /  0.9 °C 30.1 in /  1019.5 hPa Calm   3 mph /  4.8 km/h 87 % 0 in /  0.0 mm
09:22 37.2 °F /  2.9 °C 33.4 °F /  0.8 °C 30.1 in /  1019.2 hPa Calm   3 mph /  4.8 km/h 86 % 0 in /  0.0 mm
09:32 38.1 °F /  3.4 °C 33.8 °F /  1.0 °C 30.1 in /  1019.2 hPa Calm   3 mph /  4.8 km/h 84 % 0 in /  0.0 mm
09:42 39 °F /  3.9 °C 34.5 °F /  1.4 °C 30.1 in /  1019.5 hPa Calm   1 mph /  1.6 km/h 84 % 0 in /  0.0 mm
09:52 39.9 °F /  4.4 °C 35.4 °F /  1.9 °C 30.1 in /  1019.5 hPa SSW 1 mph /  1.6 km/h 1 mph /  1.6 km/h 84 % 0 in /  0.0 mm
10:02 40.8 °F /  4.9 °C 35.4 °F /  1.9 °C 30.1 in /  1019.5 hPa South 1 mph /  1.6 km/h 2 mph /  3.2 km/h 81 % 0 in /  0.0 mm
10:12 42.1 °F /  5.6 °C 36.3 °F /  2.4 °C 30.1 in /  1019.5 hPa SW 3 mph /  4.8 km/h 3 mph /  4.8 km/h 80 % 0 in /  0.0 mm
10:17 42.4 °F /  5.8 °C 36.1 °F /  2.3 °C 30.1 in /  1019.2 hPa SSE 1 mph /  1.6 km/h 4 mph /  6.4 km/h 78 % 0 in /  0.0 mm
10:22 42.8 °F /  6.0 °C 36.1 °F /  2.3 °C 30.1 in /  1019.2 hPa SW 1 mph /  1.6 km/h 4 mph /  6.4 km/h 77 % 0 in /  0.0 mm
10:32 43.5 °F /  6.4 °C 36.5 °F /  2.5 °C 30.1 in /  1019.2 hPa SW 4 mph /  6.4 km/h 4 mph /  6.4 km/h 76 % 0 in /  0.0 mm
10:42 44.2 °F /  6.8 °C 36.5 °F /  2.5 °C 30.1 in /  1019.5 hPa SSW 5 mph /  8.0 km/h 7 mph /  11.3 km/h 74 % 0 in /  0.0 mm
10:47 44.8 °F /  7.1 °C 36.3 °F /  2.4 °C 30.1 in /  1019.5 hPa West 7 mph /  11.3 km/h 13 mph /  20.9 km/h 72 % 0 in /  0.0 mm
10:52 45 °F /  7.2 °C 36.5 °F /  2.5 °C 30.1 in /  1019.5 hPa SW 6 mph /  9.7 km/h 13 mph /  20.9 km/h 72 % 0 in /  0.0 mm
10:57 45.1 °F /  7.3 °C 37 °F /  2.8 °C 30.1 in /  1019.5 hPa SW 3 mph /  4.8 km/h 13 mph /  20.9 km/h 73 % 0 in /  0.0 mm
11:02 45.1 °F /  7.3 °C 36.7 °F /  2.6 °C 30.1 in /  1019.5 hPa SW 3 mph /  4.8 km/h 13 mph /  20.9 km/h 72 % 0 in /  0.0 mm
11:12 45.5 °F /  7.5 °C 38.1 °F /  3.4 °C 30.1 in /  1019.5 hPa SW 4 mph /  6.4 km/h 11 mph /  17.7 km/h 75 % 0 in /  0.0 mm
11:17 45.7 °F /  7.6 °C 37.9 °F /  3.3 °C 30.1 in /  1019.2 hPa SW 8 mph /  12.9 km/h 11 mph /  17.7 km/h 74 % 0 in /  0.0 mm
11:22 46 °F /  7.8 °C 38.5 °F /  3.6 °C 30.1 in /  1019.2 hPa SW 5 mph /  8.0 km/h 11 mph /  17.7 km/h 75 % 0 in /  0.0 mm
11:32 46.4 °F /  8.0 °C 38.8 °F /  3.8 °C 30.1 in /  1019.5 hPa SW 4 mph /  6.4 km/h 10 mph /  16.1 km/h 75 % 0 in /  0.0 mm
11:42 47.1 °F /  8.4 °C 39.9 °F /  4.4 °C 30.1 in /  1019.2 hPa SW 8 mph /  12.9 km/h 8 mph /  12.9 km/h 76 % 0 in /  0.0 mm
11:52 47.5 °F /  8.6 °C 40.3 °F /  4.6 °C 30.1 in /  1019.2 hPa SSW 7 mph /  11.3 km/h 11 mph /  17.7 km/h 76 % 0 in /  0.0 mm
12:02 47.7 °F /  8.7 °C 40.1 °F /  4.5 °C 30.1 in /  1019.2 hPa SW 9 mph /  14.5 km/h 14 mph /  22.5 km/h 75 % 0 in /  0.0 mm
12:12 48 °F /  8.9 °C 40.8 °F /  4.9 °C 30.1 in /  1019.2 hPa SW 9 mph /  14.5 km/h 15 mph /  24.1 km/h 76 % 0 in /  0.0 mm
12:17 48.2 °F /  9.0 °C 41 °F /  5.0 °C 30.1 in /  1019.2 hPa SW 9 mph /  14.5 km/h 15 mph /  24.1 km/h 76 % 0 in /  0.0 mm
12:22 48.6 °F /  9.2 °C 41.4 °F /  5.2 °C 30.1 in /  1018.8 hPa SW 10 mph /  16.1 km/h 15 mph /  24.1 km/h 76 % 0 in /  0.0 mm
12:27 48.6 °F /  9.2 °C 41.4 °F /  5.2 °C 30.1 in /  1018.8 hPa WSW 11 mph /  17.7 km/h 15 mph /  24.1 km/h 76 % 0 in /  0.0 mm
12:32 48.6 °F /  9.2 °C 41.7 °F /  5.4 °C 30.1 in /  1018.8 hPa SW 14 mph /  22.5 km/h 16 mph /  25.7 km/h 77 % 0 in /  0.0 mm
12:42 48.7 °F /  9.3 °C 41.9 °F /  5.5 °C 30.1 in /  1018.8 hPa SSW 8 mph /  12.9 km/h 16 mph /  25.7 km/h 77 % 0 in /  0.0 mm
12:52 48.7 °F /  9.3 °C 41.9 °F /  5.5 °C 30.1 in /  1018.8 hPa SSW 13 mph /  20.9 km/h 15 mph /  24.1 km/h 77 % 0 in /  0.0 mm
12:57 48.7 °F /  9.3 °C 41.9 °F /  5.5 °C 30.1 in /  1018.8 hPa SW 15 mph /  24.1 km/h 16 mph /  25.7 km/h 77 % 0 in /  0.0 mm
13:02 48.9 °F /  9.4 °C 42.4 °F /  5.8 °C 30.1 in /  1018.5 hPa SSW 9 mph /  14.5 km/h 16 mph /  25.7 km/h 78 % 0 in /  0.0 mm
13:12 49.1 °F /  9.5 °C 42.6 °F /  5.9 °C 30.1 in /  1018.5 hPa WSW 10 mph /  16.1 km/h 16 mph /  25.7 km/h 78 % 0 in /  0.0 mm
13:17 49.3 °F /  9.6 °C 43 °F /  6.1 °C 30.1 in /  1018.5 hPa SW 6 mph /  9.7 km/h 17 mph /  27.4 km/h 79 % 0 in /  0.0 mm
13:22 49.3 °F /  9.6 °C 43 °F /  6.1 °C 30.1 in /  1018.5 hPa WSW 10 mph /  16.1 km/h 17 mph /  27.4 km/h 79 % 0 in /  0.0 mm
13:32 49.3 °F /  9.6 °C 43.3 °F /  6.3 °C 30.1 in /  1018.2 hPa SW 12 mph /  19.3 km/h 18 mph /  29.0 km/h 80 % 0 in /  0.0 mm
13:42 49.5 °F /  9.7 °C 43.2 °F /  6.2 °C 30.1 in /  1018.2 hPa SW 10 mph /  16.1 km/h 18 mph /  29.0 km/h 79 % 0 in /  0.0 mm
13:47 49.6 °F /  9.8 °C 43.7 °F /  6.5 °C 30.1 in /  1018.2 hPa SSW 9 mph /  14.5 km/h 16 mph /  25.7 km/h 80 % 0 in /  0.0 mm
13:52 49.6 °F /  9.8 °C 44.1 °F /  6.7 °C 30.1 in /  1018.2 hPa SW 13 mph /  20.9 km/h 16 mph /  25.7 km/h 81 % 0 in /  0.0 mm
14:02 49.6 °F /  9.8 °C 44.4 °F /  6.9 °C 30.1 in /  1018.2 hPa SW 8 mph /  12.9 km/h 17 mph /  27.4 km/h 82 % 0 in /  0.0 mm
14:12 49.8 °F /  9.9 °C 44.8 °F /  7.1 °C 30.1 in /  1017.8 hPa WSW 6 mph /  9.7 km/h 17 mph /  27.4 km/h 83 % 0 in /  0.0 mm
14:17 49.8 °F /  9.9 °C 44.8 °F /  7.1 °C 30.1 in /  1017.8 hPa SW 9 mph /  14.5 km/h 15 mph /  24.1 km/h 83 % 0 in /  0.0 mm
14:22 49.8 °F /  9.9 °C 44.8 °F /  7.1 °C 30.1 in /  1017.8 hPa SW 8 mph /  12.9 km/h 15 mph /  24.1 km/h 83 % 0 in /  0.0 mm
14:27 50.2 °F /  10.1 °C 45.5 °F /  7.5 °C 30.1 in /  1017.8 hPa WSW 10 mph /  16.1 km/h 15 mph /  24.1 km/h 84 % 0 in /  0.0 mm
14:32 50.4 °F /  10.2 °C 45.3 °F /  7.4 °C 30.1 in /  1017.5 hPa West 14 mph /  22.5 km/h 15 mph /  24.1 km/h 83 % 0 in /  0.0 mm
14:42 50.2 °F /  10.1 °C 45.5 °F /  7.5 °C 30.1 in /  1017.5 hPa SW 8 mph /  12.9 km/h 14 mph /  22.5 km/h 84 % 0 in /  0.0 mm
14:47 50.4 °F /  10.2 °C 46 °F /  7.8 °C 30.1 in /  1017.5 hPa SW 11 mph /  17.7 km/h 14 mph /  22.5 km/h 85 % 0 in /  0.0 mm
14:52 50.4 °F /  10.2 °C 46 °F /  7.8 °C 30.1 in /  1017.5 hPa SW 6 mph /  9.7 km/h 14 mph /  22.5 km/h 85 % 0 in /  0.0 mm
14:57 50.4 °F /  10.2 °C 46 °F /  7.8 °C 30.1 in /  1017.5 hPa SW 10 mph /  16.1 km/h 14 mph /  22.5 km/h 85 % 0 in /  0.0 mm
15:02 50.5 °F /  10.3 °C 46.2 °F /  7.9 °C 30.1 in /  1017.5 hPa SSW 8 mph /  12.9 km/h 14 mph /  22.5 km/h 85 % 0 in /  0.0 mm
15:12 50.5 °F /  10.3 °C 45.9 °F /  7.7 °C 30.1 in /  1017.5 hPa SW 8 mph /  12.9 km/h 14 mph /  22.5 km/h 84 % 0 in /  0.0 mm
15:17 50.5 °F /  10.3 °C 45.9 °F /  7.7 °C 30.1 in /  1017.5 hPa SW 5 mph /  8.0 km/h 13 mph /  20.9 km/h 84 % 0 in /  0.0 mm
15:22 50.7 °F /  10.4 °C 46 °F /  7.8 °C 30 in /  1017.2 hPa WSW 5 mph /  8.0 km/h 13 mph /  20.9 km/h 84 % 0 in /  0.0 mm
15:27 50.9 °F /  10.5 °C 46.2 °F /  7.9 °C 30 in /  1017.2 hPa SW 7 mph /  11.3 km/h 11 mph /  17.7 km/h 84 % 0 in /  0.0 mm
15:32 51.1 °F /  10.6 °C 46.4 °F /  8.0 °C 30 in /  1017.2 hPa SSW 10 mph /  16.1 km/h 11 mph /  17.7 km/h 84 % 0 in /  0.0 mm
15:37 51.1 °F /  10.6 °C 46.8 °F /  8.2 °C 30 in /  1017.2 hPa SSE 9 mph /  14.5 km/h 13 mph /  20.9 km/h 85 % 0 in /  0.0 mm
15:42 51.1 °F /  10.6 °C 46.8 °F /  8.2 °C 30 in /  1017.2 hPa SW 8 mph /  12.9 km/h 13 mph /  20.9 km/h 85 % 0 in /  0.0 mm
15:47 51.1 °F /  10.6 °C 46.8 °F /  8.2 °C 30 in /  1017.2 hPa SSW 3 mph /  4.8 km/h 13 mph /  20.9 km/h 85 % 0 in /  0.0 mm
15:52 51.1 °F /  10.6 °C 46.8 °F /  8.2 °C 30 in /  1017.2 hPa SSW 5 mph /  8.0 km/h 13 mph /  20.9 km/h 85 % 0 in /  0.0 mm
15:57 51.1 °F /  10.6 °C 46.8 °F /  8.2 °C 30 in /  1017.2 hPa SW 3 mph /  4.8 km/h 11 mph /  17.7 km/h 85 % 0 in /  0.0 mm
16:02 51.1 °F /  10.6 °C 46.8 °F /  8.2 °C 30 in /  1017.2 hPa WSW 4 mph /  6.4 km/h 11 mph /  17.7 km/h 85 % 0 in /  0.0 mm
16:12 50.7 °F /  10.4 °C 46.8 °F /  8.2 °C 30 in /  1017.2 hPa SSW 4 mph /  6.4 km/h 10 mph /  16.1 km/h 86 % 0 in /  0.0 mm
16:17 50.7 °F /  10.4 °C 46.8 °F /  8.2 °C 30 in /  1017.2 hPa SSW 5 mph /  8.0 km/h 11 mph /  17.7 km/h 86 % 0 in /  0.0 mm
16:22 50.7 °F /  10.4 °C 46.8 °F /  8.2 °C 30 in /  1017.2 hPa SW 6 mph /  9.7 km/h 11 mph /  17.7 km/h 86 % 0 in /  0.0 mm
16:32 51.1 °F /  10.6 °C 47.3 °F /  8.5 °C 30 in /  1017.2 hPa SW 5 mph /  8.0 km/h 10 mph /  16.1 km/h 87 % 0 in /  0.0 mm
16:37 51.1 °F /  10.6 °C 47.3 °F /  8.5 °C 30 in /  1017.2 hPa SSW 6 mph /  9.7 km/h 10 mph /  16.1 km/h 87 % 0 in /  0.0 mm
16:42 50.7 °F /  10.4 °C 47.3 °F /  8.5 °C 30 in /  1017.2 hPa SW 6 mph /  9.7 km/h 10 mph /  16.1 km/h 88 % 0 in /  0.0 mm
16:47 50.5 °F /  10.3 °C 47.5 °F /  8.6 °C 30 in /  1017.2 hPa SW 5 mph /  8.0 km/h 10 mph /  16.1 km/h 89 % 0 in /  0.0 mm
16:52 50.4 °F /  10.2 °C 47.3 °F /  8.5 °C 30 in /  1017.2 hPa SSW 3 mph /  4.8 km/h 9 mph /  14.5 km/h 89 % 0 in /  0.0 mm
16:57 50.4 °F /  10.2 °C 47.3 °F /  8.5 °C 30 in /  1017.2 hPa SW 3 mph /  4.8 km/h 8 mph /  12.9 km/h 89 % 0 in /  0.0 mm
17:02 50.5 °F /  10.3 °C 47.5 °F /  8.6 °C 30 in /  1017.2 hPa WSW 3 mph /  4.8 km/h 8 mph /  12.9 km/h 89 % 0 in /  0.0 mm
17:07 50.9 °F /  10.5 °C 47.1 °F /  8.4 °C 30 in /  1017.2 hPa SW 4 mph /  6.4 km/h 5 mph /  8.0 km/h 87 % 0 in /  0.0 mm
17:12 51.3 °F /  10.7 °C 47.3 °F /  8.5 °C 30 in /  1016.8 hPa SW 7 mph /  11.3 km/h 7 mph /  11.3 km/h 86 % 0 in /  0.0 mm
17:17 51.4 °F /  10.8 °C 47.5 °F /  8.6 °C 30 in /  1017.2 hPa SW 5 mph /  8.0 km/h 7 mph /  11.3 km/h 86 % 0 in /  0.0 mm
17:22 51.6 °F /  10.9 °C 47.3 °F /  8.5 °C 30 in /  1017.2 hPa SW 4 mph /  6.4 km/h 8 mph /  12.9 km/h 85 % 0 in /  0.0 mm
17:27 51.6 °F /  10.9 °C 47.5 °F /  8.6 °C 30 in /  1016.8 hPa SW 4 mph /  6.4 km/h 8 mph /  12.9 km/h 86 % 0 in /  0.0 mm
17:32 51.4 °F /  10.8 °C 47.7 °F /  8.7 °C 30 in /  1016.8 hPa SW 6 mph /  9.7 km/h 8 mph /  12.9 km/h 87 % 0 in /  0.0 mm
17:37 51.3 °F /  10.7 °C 47.5 °F /  8.6 °C 30 in /  1016.8 hPa SSW 5 mph /  8.0 km/h 8 mph /  12.9 km/h 87 % 0 in /  0.0 mm
17:42 51.3 °F /  10.7 °C 47.5 °F /  8.6 °C 30 in /  1016.8 hPa SW 4 mph /  6.4 km/h 8 mph /  12.9 km/h 87 % 0 in /  0.0 mm
17:47 51.4 °F /  10.8 °C 47.5 °F /  8.6 °C 30 in /  1016.8 hPa SSW 5 mph /  8.0 km/h 8 mph /  12.9 km/h 86 % 0 in /  0.0 mm
17:52 51.4 °F /  10.8 °C 47.5 °F /  8.6 °C 30 in /  1016.8 hPa SW 5 mph /  8.0 km/h 8 mph /  12.9 km/h 86 % 0 in /  0.0 mm
17:57 51.4 °F /  10.8 °C 47.5 °F /  8.6 °C 30 in /  1016.8 hPa SW 8 mph /  12.9 km/h 9 mph /  14.5 km/h 86 % 0 in /  0.0 mm
18:02 51.6 °F /  10.9 °C 47.5 °F /  8.6 °C 30 in /  1016.8 hPa SW 5 mph /  8.0 km/h 9 mph /  14.5 km/h 86 % 0 in /  0.0 mm
18:12 51.4 °F /  10.8 °C 47.5 °F /  8.6 °C 30 in /  1016.8 hPa SW 6 mph /  9.7 km/h 12 mph /  19.3 km/h 86 % 0 in /  0.0 mm
18:17 51.3 °F /  10.7 °C 47.5 °F /  8.6 °C 30 in /  1016.8 hPa SSE 4 mph /  6.4 km/h 12 mph /  19.3 km/h 87 % 0 in /  0.0 mm
18:22 51.3 °F /  10.7 °C 47.5 °F /  8.6 °C 30 in /  1016.8 hPa SW 8 mph /  12.9 km/h 11 mph /  17.7 km/h 87 % 0 in /  0.0 mm
18:32 51.3 °F /  10.7 °C 47.5 °F /  8.6 °C 30 in /  1016.8 hPa SSW 3 mph /  4.8 km/h 11 mph /  17.7 km/h 87 % 0 in /  0.0 mm
18:37 51.1 °F /  10.6 °C 47.3 °F /  8.5 °C 30 in /  1016.8 hPa SW 3 mph /  4.8 km/h 11 mph /  17.7 km/h 87 % 0 in /  0.0 mm
18:42 51.1 °F /  10.6 °C 47.3 °F /  8.5 °C 30 in /  1016.8 hPa SSW 4 mph /  6.4 km/h 10 mph /  16.1 km/h 87 % 0 in /  0.0 mm
18:47 51.1 °F /  10.6 °C 47.3 °F /  8.5 °C 30 in /  1016.8 hPa SW 10 mph /  16.1 km/h 10 mph /  16.1 km/h 87 % 0 in /  0.0 mm
18:57 51.1 °F /  10.6 °C 47.7 °F /  8.7 °C 30 in /  1016.8 hPa WSW 3 mph /  4.8 km/h 14 mph /  22.5 km/h 88 % 0 in /  0.0 mm
19:02 50.9 °F /  10.5 °C 47.5 °F /  8.6 °C 30 in /  1016.8 hPa SW 5 mph /  8.0 km/h 14 mph /  22.5 km/h 88 % 0 in /  0.0 mm
19:12 50.7 °F /  10.4 °C 47.3 °F /  8.5 °C 30 in /  1016.8 hPa SW 9 mph /  14.5 km/h 13 mph /  20.9 km/h 88 % 0 in /  0.0 mm
19:17 50.5 °F /  10.3 °C 47.5 °F /  8.6 °C 30 in /  1016.8 hPa SW 7 mph /  11.3 km/h 12 mph /  19.3 km/h 89 % 0 in /  0.0 mm
19:22 50.4 °F /  10.2 °C 47.5 °F /  8.6 °C 30 in /  1016.8 hPa SW 6 mph /  9.7 km/h 12 mph /  19.3 km/h 90 % 0 in /  0.0 mm
19:32 50.2 °F /  10.1 °C 47.7 °F /  8.7 °C 30 in /  1016.8 hPa SW 7 mph /  11.3 km/h 12 mph /  19.3 km/h 91 % 0 in /  0.0 mm
19:42 50.2 °F /  10.1 °C 47.7 °F /  8.7 °C 30 in /  1016.8 hPa SW 6 mph /  9.7 km/h 10 mph /  16.1 km/h 91 % 0 in /  0.0 mm
19:47 50 °F /  10.0 °C 47.5 °F /  8.6 °C 30 in /  1016.8 hPa SW 5 mph /  8.0 km/h 9 mph /  14.5 km/h 91 % 0 in /  0.0 mm
19:52 49.8 °F /  9.9 °C 47.3 °F /  8.5 °C 30 in /  1016.8 hPa SW 4 mph /  6.4 km/h 9 mph /  14.5 km/h 91 % 0 in /  0.0 mm
19:57 49.8 °F /  9.9 °C 47.7 °F /  8.7 °C 30 in /  1016.8 hPa SW 7 mph /  11.3 km/h 9 mph /  14.5 km/h 92 % 0 in /  0.0 mm
20:02 49.8 °F /  9.9 °C 47.3 °F /  8.5 °C 30 in /  1016.8 hPa SW 5 mph /  8.0 km/h 9 mph /  14.5 km/h 91 % 0 in /  0.0 mm
20:07 50 °F /  10.0 °C 47.5 °F /  8.6 °C 30 in /  1016.8 hPa SW 6 mph /  9.7 km/h 10 mph /  16.1 km/h 91 % 0 in /  0.0 mm
20:12 50 °F /  10.0 °C 47.5 °F /  8.6 °C 30 in /  1016.5 hPa SW 5 mph /  8.0 km/h 10 mph /  16.1 km/h 91 % 0 in /  0.0 mm
20:17 49.8 °F /  9.9 °C 47.3 °F /  8.5 °C 30 in /  1016.5 hPa SW 5 mph /  8.0 km/h 11 mph /  17.7 km/h 91 % 0 in /  0.0 mm
20:22 49.8 °F /  9.9 °C 47.3 °F /  8.5 °C 30 in /  1016.5 hPa WSW 8 mph /  12.9 km/h 11 mph /  17.7 km/h 91 % 0 in /  0.0 mm
20:32 49.8 °F /  9.9 °C 46.9 °F /  8.3 °C 30 in /  1016.5 hPa SW 10 mph /  16.1 km/h 11 mph /  17.7 km/h 90 % 0 in /  0.0 mm
20:42 49.8 °F /  9.9 °C 46.9 °F /  8.3 °C 30 in /  1016.5 hPa SSW 4 mph /  6.4 km/h 10 mph /  16.1 km/h 90 % 0 in /  0.0 mm
20:47 50 °F /  10.0 °C 47.1 °F /  8.4 °C 30 in /  1016.5 hPa SW 5 mph /  8.0 km/h 10 mph /  16.1 km/h 90 % 0 in /  0.0 mm
20:52 50 °F /  10.0 °C 47.1 °F /  8.4 °C 30 in /  1016.5 hPa SW 7 mph /  11.3 km/h 10 mph /  16.1 km/h 90 % 0 in /  0.0 mm
20:57 49.8 °F /  9.9 °C 46.9 °F /  8.3 °C 30 in /  1016.5 hPa SSW 1 mph /  1.6 km/h 9 mph /  14.5 km/h 90 % 0 in /  0.0 mm
21:02 50 °F /  10.0 °C 47.1 °F /  8.4 °C 30 in /  1016.1 hPa SW 4 mph /  6.4 km/h 9 mph /  14.5 km/h 90 % 0 in /  0.0 mm
21:12 50 °F /  10.0 °C 47.1 °F /  8.4 °C 30 in /  1016.1 hPa SW 6 mph /  9.7 km/h 9 mph /  14.5 km/h 90 % 0 in /  0.0 mm
21:17 49.8 °F /  9.9 °C 46.9 °F /  8.3 °C 30 in /  1016.1 hPa SW 5 mph /  8.0 km/h 10 mph /  16.1 km/h 90 % 0 in /  0.0 mm
21:22 49.8 °F /  9.9 °C 46.9 °F /  8.3 °C 30 in /  1016.1 hPa SSW 5 mph /  8.0 km/h 10 mph /  16.1 km/h 90 % 0 in /  0.0 mm
21:32 49.6 °F /  9.8 °C 46.8 °F /  8.2 °C 30 in /  1016.1 hPa SSW 8 mph /  12.9 km/h 9 mph /  14.5 km/h 90 % 0 in /  0.0 mm
21:37 49.6 °F /  9.8 °C 46.8 °F /  8.2 °C 30 in /  1016.1 hPa SW 9 mph /  14.5 km/h 12 mph /  19.3 km/h 90 % 0 in /  0.0 mm
21:42 49.6 °F /  9.8 °C 46.8 °F /  8.2 °C 30 in /  1016.1 hPa SW 8 mph /  12.9 km/h 12 mph /  19.3 km/h 90 % 0 in /  0.0 mm
21:47 49.5 °F /  9.7 °C 46.6 °F /  8.1 °C 30 in /  1016.1 hPa SSW 4 mph /  6.4 km/h 11 mph /  17.7 km/h 90 % 0 in /  0.0 mm
21:52 49.3 °F /  9.6 °C 46.4 °F /  8.0 °C 30 in /  1015.8 hPa SSW 4 mph /  6.4 km/h 11 mph /  17.7 km/h 90 % 0 in /  0.0 mm
21:57 49.3 °F /  9.6 °C 46.4 °F /  8.0 °C 30 in /  1015.8 hPa SSW 5 mph /  8.0 km/h 9 mph /  14.5 km/h 90 % 0 in /  0.0 mm
22:02 49.3 °F /  9.6 °C 46.4 °F /  8.0 °C 30 in /  1015.8 hPa SSW 6 mph /  9.7 km/h 9 mph /  14.5 km/h 90 % 0 in /  0.0 mm
22:12 49.3 °F /  9.6 °C 46.4 °F /  8.0 °C 30 in /  1015.8 hPa SSW 7 mph /  11.3 km/h 10 mph /  16.1 km/h 90 % 0 in /  0.0 mm
22:17 49.3 °F /  9.6 °C 46.4 °F /  8.0 °C 30 in /  1015.8 hPa SSW 6 mph /  9.7 km/h 11 mph /  17.7 km/h 90 % 0 in /  0.0 mm
22:22 49.3 °F /  9.6 °C 46.4 °F /  8.0 °C 30 in /  1015.8 hPa SW 8 mph /  12.9 km/h 12 mph /  19.3 km/h 90 % 0 in /  0.0 mm
22:27 49.3 °F /  9.6 °C 46.4 °F /  8.0 °C 30 in /  1015.8 hPa SSW 6 mph /  9.7 km/h 12 mph /  19.3 km/h 90 % 0 in /  0.0 mm
22:32 49.3 °F /  9.6 °C 46.4 °F /  8.0 °C 30 in /  1015.5 hPa SSW 8 mph /  12.9 km/h 12 mph /  19.3 km/h 90 % 0 in /  0.0 mm
22:42 49.5 °F /  9.7 °C 46.4 °F /  8.0 °C 30 in /  1015.5 hPa SSW 5 mph /  8.0 km/h 12 mph /  19.3 km/h 89 % 0 in /  0.0 mm
22:47 49.5 °F /  9.7 °C 46.4 °F /  8.0 °C 30 in /  1015.5 hPa SW 11 mph /  17.7 km/h 13 mph /  20.9 km/h 89 % 0 in /  0.0 mm
22:52 49.6 °F /  9.8 °C 46.6 °F /  8.1 °C 30 in /  1015.5 hPa SW 5 mph /  8.0 km/h 13 mph /  20.9 km/h 89 % 0 in /  0.0 mm
23:02 49.5 °F /  9.7 °C 46.4 °F /  8.0 °C 30 in /  1015.5 hPa SSW 5 mph /  8.0 km/h 12 mph /  19.3 km/h 89 % 0 in /  0.0 mm
23:12 49.3 °F /  9.6 °C 46.2 °F /  7.9 °C 30 in /  1015.5 hPa SW 8 mph /  12.9 km/h 12 mph /  19.3 km/h 89 % 0 in /  0.0 mm
23:17 49.3 °F /  9.6 °C 46.2 °F /  7.9 °C 30 in /  1015.1 hPa SSW 6 mph /  9.7 km/h 10 mph /  16.1 km/h 89 % 0 in /  0.0 mm
23:22 49.3 °F /  9.6 °C 46.2 °F /  7.9 °C 30 in /  1015.5 hPa SSW 4 mph /  6.4 km/h 11 mph /  17.7 km/h 89 % 0 in /  0.0 mm
23:27 49.3 °F /  9.6 °C 46.2 °F /  7.9 °C 30 in /  1015.1 hPa SSW 6 mph /  9.7 km/h 11 mph /  17.7 km/h 89 % 0 in /  0.0 mm
23:32 49.3 °F /  9.6 °C 46.2 °F /  7.9 °C 30 in /  1015.1 hPa SSW 7 mph /  11.3 km/h 11 mph /  17.7 km/h 89 % 0 in /  0.0 mm
23:37 49.3 °F /  9.6 °C 46.2 °F /  7.9 °C 30 in /  1015.1 hPa SSW 7 mph /  11.3 km/h 11 mph /  17.7 km/h 89 % 0 in /  0.0 mm
23:42 49.1 °F /  9.5 °C 46 °F /  7.8 °C 30 in /  1015.1 hPa SSW 3 mph /  4.8 km/h 11 mph /  17.7 km/h 89 % 0 in /  0.0 mm
23:47 48.9 °F /  9.4 °C 45.9 °F /  7.7 °C 30 in /  1014.8 hPa South 5 mph /  8.0 km/h 10 mph /  16.1 km/h 89 % 0 in /  0.0 mm
23:52 48.9 °F /  9.4 °C 45.9 °F /  7.7 °C 30 in /  1014.8 hPa SW 7 mph /  11.3 km/h 10 mph /  16.1 km/h 89 % 0 in /  0.0 mm
23:57 48.9 °F /  9.4 °C 45.9 °F /  7.7 °C 30 in /  1014.8 hPa SSW 7 mph /  11.3 km/h 9 mph /  14.5 km/h 89 % 0 in /  0.0 mm
Meteo18
Compliments of Weather Underground - 4 mb

Script developed by  Jim McMurry - jmcmurry@mwt.net Adapted for the template by  Wim van der Kuil - Leuven-Template.eu

You find our weather info also at:

European Weather Network

Weather Underground

Equipment we use:

Weather-station
Davis Vue

Weather-program
Meteohub

Weather-server
Raspberry PI 2 B+

Provider
1 and 1

Davis Vue

Meteohub

Raspberry PI 2 B+

1 and 1